createdAt,value
2023-05-06T00:00:30.755Z,6.80
2023-05-06T00:03:32.810Z,6.57
2023-05-06T00:06:37.421Z,6.82
2023-05-06T00:09:39.123Z,6.45
2023-05-06T00:12:41.044Z,6.93
2023-05-06T00:15:42.950Z,7.12
2023-05-06T00:18:46.608Z,7.28
2023-05-06T00:21:48.251Z,6.87
2023-05-06T00:24:50.103Z,6.55
2023-05-06T00:27:53.639Z,7.10
2023-05-06T00:30:55.337Z,7.28
2023-05-06T00:33:57.046Z,8.52
2023-05-06T00:36:58.719Z,7.40
2023-05-06T00:40:00.492Z,8.00
2023-05-06T00:43:02.642Z,7.78
2023-05-06T00:46:05.628Z,8.50
2023-05-06T00:49:07.492Z,7.97
2023-05-06T00:52:09.719Z,8.07
2023-05-06T00:55:11.760Z,7.97
2023-05-06T00:58:14.623Z,7.95
2023-05-06T01:01:17.501Z,7.60
2023-05-06T01:04:20.313Z,7.97
2023-05-06T01:07:40.557Z,8.52
2023-05-06T01:11:09.854Z,8.13
2023-05-06T01:14:55.724Z,7.78
2023-05-06T01:18:01.043Z,8.48
2023-05-06T01:21:05.370Z,7.82
2023-05-06T01:24:07.405Z,7.45
2023-05-06T01:27:10.673Z,8.45
2023-05-06T01:30:14.470Z,8.05
2023-05-06T01:33:40.852Z,8.10
2023-05-06T01:36:57.704Z,7.75
2023-05-06T01:40:00.819Z,6.95
2023-05-06T01:43:05.860Z,7.65
2023-05-06T01:46:13.733Z,7.55
2023-05-06T01:49:18.394Z,7.40
2023-05-06T01:52:21.971Z,7.97
2023-05-06T01:55:23.649Z,7.22
2023-05-06T01:58:25.426Z,7.28
2023-05-06T02:01:27.318Z,7.15
2023-05-06T02:04:29.063Z,7.15
2023-05-06T02:07:30.841Z,7.47
2023-05-06T02:10:32.655Z,7.43
2023-05-06T02:13:34.406Z,7.07
2023-05-06T02:16:36.270Z,7.43
2023-05-06T02:19:40.091Z,8.20
2023-05-06T02:22:42.809Z,9.15
2023-05-06T02:25:44.478Z,8.20
2023-05-06T02:28:48.232Z,9.27
2023-05-06T02:31:52.095Z,9.50
2023-05-06T02:34:54.811Z,11.85
2023-05-06T02:37:57.630Z,13.23
2023-05-06T02:41:00.319Z,13.15
2023-05-06T02:44:01.980Z,13.15
2023-05-06T02:47:03.772Z,11.25
2023-05-06T02:50:06.035Z,10.65
2023-05-06T02:53:09.011Z,11.35
2023-05-06T02:56:10.721Z,9.95
2023-05-06T02:59:12.419Z,10.70
2023-05-06T03:02:14.090Z,10.88
2023-05-06T03:05:15.894Z,10.05
2023-05-06T03:08:17.619Z,10.68
2023-05-06T03:11:19.296Z,10.25
2023-05-06T03:14:21.979Z,10.13
2023-05-06T03:17:24.759Z,9.82
2023-05-06T03:20:28.774Z,10.38
2023-05-06T03:23:30.824Z,10.35
2023-05-06T03:26:33.511Z,8.40
2023-05-06T03:29:35.373Z,9.43
2023-05-06T03:32:38.461Z,9.20
2023-05-06T03:35:40.522Z,9.30
2023-05-06T03:38:43.412Z,9.25
2023-05-06T03:41:45.069Z,10.52
2023-05-06T03:44:47.777Z,9.98
2023-05-06T03:47:49.534Z,9.85
2023-05-06T03:50:51.708Z,9.95
2023-05-06T03:53:54.842Z,9.93
2023-05-06T03:56:56.675Z,10.32
2023-05-06T03:59:58.405Z,10.35
2023-05-06T04:03:00.149Z,10.40
2023-05-06T04:06:01.942Z,10.02
2023-05-06T04:09:06.374Z,10.43
2023-05-06T04:12:08.118Z,10.40
2023-05-06T04:15:10.690Z,9.77
2023-05-06T04:18:18.887Z,10.27
2023-05-06T04:21:20.721Z,10.20
2023-05-06T04:24:23.035Z,10.00
2023-05-06T04:27:26.646Z,10.88
2023-05-06T04:30:28.428Z,9.70
2023-05-06T04:33:30.183Z,10.27
2023-05-06T04:36:31.897Z,10.07
2023-05-06T04:39:34.323Z,9.43
2023-05-06T04:42:36.011Z,9.52
2023-05-06T04:45:37.946Z,10.05
2023-05-06T04:48:39.718Z,9.50
2023-05-06T04:51:41.540Z,9.02
2023-05-06T04:54:45.389Z,9.88
2023-05-06T04:57:47.363Z,9.77
2023-05-06T05:00:49.065Z,9.63
2023-05-06T05:03:50.848Z,9.52
2023-05-06T05:06:52.749Z,9.27
2023-05-06T05:09:56.492Z,9.43
2023-05-06T05:12:58.485Z,9.40
2023-05-06T05:16:01.145Z,9.15
2023-05-06T05:19:03.913Z,9.25
2023-05-06T05:22:06.177Z,8.77
2023-05-06T05:25:08.777Z,8.18
2023-05-06T05:28:10.510Z,8.35
2023-05-06T05:31:12.244Z,8.93
2023-05-06T05:34:13.988Z,9.23
2023-05-06T05:37:15.630Z,8.95
2023-05-06T05:40:17.244Z,8.80
2023-05-06T05:43:21.361Z,9.07
2023-05-06T05:46:23.070Z,8.82
2023-05-06T05:49:24.854Z,7.82
2023-05-06T05:52:26.567Z,7.75
2023-05-06T05:55:29.613Z,7.57
2023-05-06T05:58:31.394Z,7.45
2023-05-06T06:01:33.173Z,7.40
2023-05-06T06:04:35.080Z,7.47
2023-05-06T06:07:36.960Z,7.45
2023-05-06T06:10:38.669Z,6.37
2023-05-06T06:13:40.381Z,6.93
2023-05-06T06:16:42.249Z,5.95
2023-05-06T06:19:47.172Z,6.55
2023-05-06T06:22:48.908Z,6.05
2023-05-06T06:25:50.735Z,6.10
2023-05-06T06:28:52.483Z,7.03
2023-05-06T06:31:58.365Z,6.50
2023-05-06T06:35:00.148Z,6.30
2023-05-06T06:38:02.995Z,5.95
2023-05-06T06:41:04.899Z,5.95
2023-05-06T06:44:06.664Z,6.97
2023-05-06T06:47:08.349Z,6.10
2023-05-06T06:50:10.559Z,5.45
2023-05-06T06:53:12.318Z,5.90
2023-05-06T06:56:14.025Z,7.32
2023-05-06T06:59:15.838Z,6.10
2023-05-06T07:02:17.545Z,5.55
2023-05-06T07:05:19.354Z,5.53
2023-05-06T07:08:22.357Z,5.05
2023-05-06T07:11:24.003Z,5.15
2023-05-06T07:14:25.914Z,5.55
2023-05-06T07:17:27.672Z,6.22
2023-05-06T07:20:30.822Z,4.97
2023-05-06T07:23:32.520Z,4.22
2023-05-06T07:26:37.903Z,4.50
2023-05-06T07:29:39.609Z,4.05
2023-05-06T07:32:41.458Z,4.93
2023-05-06T07:35:43.282Z,4.20
2023-05-06T07:38:45.227Z,4.60
2023-05-06T07:41:48.039Z,4.60
2023-05-06T07:44:49.665Z,5.15
2023-05-06T07:47:57.509Z,3.95
2023-05-06T07:51:00.995Z,4.35
2023-05-06T07:54:03.878Z,3.80
2023-05-06T07:57:06.643Z,3.33
2023-05-06T08:00:10.193Z,3.33
2023-05-06T08:03:12.128Z,4.18
2023-05-06T08:06:13.925Z,3.70
2023-05-06T08:09:22.571Z,3.78
2023-05-06T08:12:25.030Z,3.53
2023-05-06T08:15:26.825Z,3.97
2023-05-06T08:18:28.526Z,4.00
2023-05-06T08:21:30.913Z,3.10
2023-05-06T08:24:32.664Z,3.12
2023-05-06T08:27:36.790Z,3.20
2023-05-06T08:30:38.503Z,2.90
2023-05-06T08:33:40.207Z,3.03
2023-05-06T08:36:41.852Z,3.25
2023-05-06T08:39:45.385Z,3.22
2023-05-06T08:42:48.266Z,3.03
2023-05-06T08:45:50.595Z,2.50
2023-05-06T08:48:52.986Z,2.60
2023-05-06T08:51:55.409Z,2.83
2023-05-06T08:55:01.632Z,2.95
2023-05-06T08:58:07.074Z,2.80
2023-05-06T09:01:09.383Z,2.60
2023-05-06T09:04:11.772Z,2.70
2023-05-06T09:07:13.468Z,2.70
2023-05-06T09:10:15.604Z,2.53
2023-05-06T09:13:19.531Z,3.03
2023-05-06T09:16:30.827Z,2.62
2023-05-06T09:19:32.576Z,2.80
2023-05-06T09:22:34.314Z,2.70
2023-05-06T09:25:37.401Z,2.37
2023-05-06T09:28:39.680Z,2.28
2023-05-06T09:31:46.634Z,2.40
2023-05-06T09:34:49.036Z,2.67
2023-05-06T09:37:51.821Z,2.67
2023-05-06T09:40:53.466Z,2.50
2023-05-06T09:43:56.407Z,2.80
2023-05-06T09:46:58.156Z,3.22
2023-05-06T09:50:01.342Z,3.08
2023-05-06T09:53:04.784Z,2.85
2023-05-06T09:56:07.848Z,2.80
2023-05-06T09:59:11.080Z,2.67
2023-05-06T10:02:15.855Z,3.08
2023-05-06T10:05:18.342Z,3.15
2023-05-06T10:08:23.476Z,3.12
2023-05-06T10:11:26.334Z,2.47
2023-05-06T10:14:29.258Z,2.58
2023-05-06T10:17:32.876Z,2.70
2023-05-06T10:20:36.347Z,2.30
2023-05-06T10:23:49.132Z,2.40
2023-05-06T10:26:53.237Z,2.20
2023-05-06T10:29:59.595Z,2.30
2023-05-06T10:33:11.925Z,2.70
2023-05-06T10:36:20.470Z,2.30
2023-05-06T10:39:22.320Z,2.45
2023-05-06T10:42:30.362Z,2.30
2023-05-06T10:46:10.852Z,2.60
2023-05-06T10:49:13.802Z,3.05
2023-05-06T10:52:17.020Z,2.22
2023-05-06T10:55:27.762Z,3.05
2023-05-06T10:58:36.095Z,2.58
2023-05-06T11:01:42.709Z,2.60
2023-05-06T11:04:50.926Z,2.40
2023-05-06T11:08:09.129Z,2.55
2023-05-06T11:11:47.862Z,2.62
2023-05-06T11:14:49.657Z,2.78
2023-05-06T11:17:53.241Z,2.40
2023-05-06T11:21:01.027Z,2.50
2023-05-06T11:24:02.688Z,2.55
2023-05-06T11:27:04.385Z,2.30
2023-05-06T11:30:14.798Z,2.87
2023-05-06T11:33:20.016Z,2.65
2023-05-06T11:36:21.906Z,2.62
2023-05-06T11:39:23.665Z,2.60
2023-05-06T11:42:27.126Z,2.65
2023-05-06T11:45:40.873Z,2.30
2023-05-06T11:48:45.906Z,2.50
2023-05-06T11:51:49.390Z,2.62
2023-05-06T11:54:53.661Z,2.42
2023-05-06T11:57:55.361Z,3.00
2023-05-06T12:00:59.912Z,2.37
2023-05-06T12:04:02.320Z,2.03
2023-05-06T12:07:05.870Z,2.17
2023-05-06T12:10:08.673Z,2.30
2023-05-06T12:13:10.816Z,2.60
2023-05-06T12:16:13.152Z,2.37
2023-05-06T12:19:18.745Z,2.50
2023-05-06T12:22:23.048Z,2.28
2023-05-06T12:25:24.701Z,2.12
2023-05-06T12:28:26.991Z,2.15
2023-05-06T12:31:28.777Z,1.77
2023-05-06T12:34:38.628Z,1.80
2023-05-06T12:37:40.320Z,2.25
2023-05-06T12:40:43.759Z,2.17
2023-05-06T12:43:45.869Z,2.00
2023-05-06T12:46:52.625Z,1.62
2023-05-06T12:49:59.096Z,2.08
2023-05-06T12:53:02.145Z,2.10
2023-05-06T12:56:04.479Z,1.77
2023-05-06T12:59:06.416Z,2.10
2023-05-06T13:02:08.570Z,2.22
2023-05-06T13:05:10.388Z,2.50
2023-05-06T13:08:12.134Z,2.22
2023-05-06T13:11:13.871Z,2.40
2023-05-06T13:14:16.393Z,2.40
2023-05-06T13:17:18.184Z,2.10
2023-05-06T13:20:20.054Z,2.20
2023-05-06T13:23:22.004Z,2.05
2023-05-06T13:26:23.790Z,2.28
2023-05-06T13:29:25.510Z,2.12
2023-05-06T13:32:27.225Z,2.10
2023-05-06T13:35:30.499Z,2.08
2023-05-06T13:38:32.405Z,2.33
2023-05-06T13:41:34.509Z,2.42
2023-05-06T13:44:36.340Z,2.17
2023-05-06T13:47:38.073Z,2.00
2023-05-06T13:50:47.361Z,2.33
2023-05-06T13:53:49.089Z,2.42
2023-05-06T13:56:50.792Z,2.35
2023-05-06T13:59:53.513Z,2.60
2023-05-06T14:02:55.227Z,2.30
2023-05-06T14:05:57.411Z,2.87
2023-05-06T14:09:00.173Z,2.33
2023-05-06T14:12:02.898Z,2.35
2023-05-06T14:15:08.850Z,2.72
2023-05-06T14:18:10.938Z,2.25
2023-05-06T14:21:12.653Z,2.50
2023-05-06T14:24:14.395Z,2.22
2023-05-06T14:27:16.416Z,2.60
2023-05-06T14:30:18.633Z,2.33
2023-05-06T14:33:20.386Z,2.10
2023-05-06T14:36:22.116Z,2.85
2023-05-06T14:39:23.778Z,2.47
2023-05-06T14:42:25.690Z,2.22
2023-05-06T14:45:27.825Z,2.42
2023-05-06T14:48:29.609Z,2.47
2023-05-06T14:51:32.446Z,2.62
2023-05-06T14:54:34.295Z,2.60
2023-05-06T14:57:36.702Z,2.60
2023-05-06T15:00:38.536Z,2.40
2023-05-06T15:03:40.254Z,2.40
2023-05-06T15:06:41.932Z,2.50
2023-05-06T15:09:44.618Z,2.60
2023-05-06T15:12:50.415Z,2.72
2023-05-06T15:15:54.118Z,2.65
2023-05-06T15:18:57.976Z,2.90
2023-05-06T15:22:01.833Z,2.58
2023-05-06T15:25:03.800Z,2.80
2023-05-06T15:28:08.393Z,3.90
2023-05-06T15:31:10.039Z,3.53
2023-05-06T15:34:12.466Z,3.17
2023-05-06T15:37:15.967Z,4.35
2023-05-06T15:40:17.694Z,3.65
2023-05-06T15:43:23.315Z,5.85
2023-05-06T15:46:29.528Z,5.37
2023-05-06T15:49:51.392Z,4.60
2023-05-06T15:52:56.212Z,4.25
2023-05-06T15:56:07.198Z,4.53
2023-05-06T15:59:15.332Z,4.45
2023-05-06T16:05:22.994Z,4.37
2023-05-06T16:08:25.272Z,4.15
2023-05-06T16:11:26.878Z,4.32
2023-05-06T16:14:30.837Z,4.05
2023-05-06T16:17:38.126Z,4.10
2023-05-06T16:20:41.432Z,3.83
2023-05-06T16:23:44.161Z,4.00
2023-05-06T16:26:45.875Z,3.72
2023-05-06T16:29:48.653Z,3.87
2023-05-06T16:32:50.361Z,4.25
2023-05-06T16:35:52.049Z,4.75
2023-05-06T16:38:53.769Z,6.45
2023-05-06T16:41:56.516Z,8.15
2023-05-06T16:44:58.183Z,7.03
2023-05-06T16:47:59.910Z,5.60
2023-05-06T16:51:07.399Z,4.82
2023-05-06T16:54:11.146Z,5.95
2023-05-06T16:57:13.890Z,5.07
2023-05-06T17:00:16.817Z,5.35
2023-05-06T17:03:19.706Z,4.93
2023-05-06T17:06:24.790Z,4.45
2023-05-06T17:09:26.515Z,4.53
2023-05-06T17:12:28.356Z,4.45
2023-05-06T17:15:31.191Z,4.25
2023-05-06T17:18:32.921Z,4.75
2023-05-06T17:21:42.343Z,4.53
2023-05-06T17:24:44.022Z,5.20
2023-05-06T17:27:46.850Z,4.60
2023-05-06T17:30:48.579Z,4.12
2023-05-06T17:33:50.382Z,4.25
2023-05-06T17:36:53.221Z,4.75
2023-05-06T17:39:54.979Z,4.60
2023-05-06T17:42:56.648Z,4.47
2023-05-06T17:45:58.422Z,4.35
2023-05-06T17:49:00.130Z,4.55
2023-05-06T17:52:02.022Z,5.65
2023-05-06T17:55:15.520Z,5.00
2023-05-06T17:58:18.315Z,5.45
2023-05-06T18:01:20.046Z,7.37
2023-05-06T18:04:21.771Z,6.60
2023-05-06T18:07:23.459Z,7.43
2023-05-06T18:10:25.863Z,6.97
2023-05-06T18:13:27.751Z,7.55
2023-05-06T18:16:29.523Z,8.02
2023-05-06T18:19:31.239Z,12.73
2023-05-06T18:22:32.988Z,10.88
2023-05-06T18:25:34.721Z,16.45
2023-05-06T18:28:37.878Z,17.95
2023-05-06T18:31:39.718Z,16.80
2023-05-06T18:34:41.692Z,16.23
2023-05-06T18:37:43.344Z,11.27
2023-05-06T18:40:47.952Z,7.32
2023-05-06T18:43:49.690Z,7.47
2023-05-06T18:46:51.338Z,8.80
2023-05-06T18:49:53.502Z,9.50
2023-05-06T18:52:55.206Z,8.65
2023-05-06T18:55:56.881Z,7.40
2023-05-06T18:58:59.775Z,7.32
2023-05-06T19:02:03.153Z,7.70
2023-05-06T19:05:07.216Z,7.03
2023-05-06T19:08:10.193Z,8.50
2023-05-06T19:11:16.053Z,11.27
2023-05-06T19:14:17.775Z,13.50
2023-05-06T19:17:19.438Z,14.68
2023-05-06T19:20:21.292Z,9.52
2023-05-06T19:23:23.177Z,9.73
2023-05-06T19:26:26.578Z,9.88
2023-05-06T19:29:28.636Z,11.30
2023-05-06T19:32:32.673Z,12.10
2023-05-06T19:35:38.097Z,9.45
2023-05-06T19:38:39.876Z,12.25
2023-05-06T19:41:41.677Z,10.75
2023-05-06T19:44:43.523Z,7.82
2023-05-06T19:47:45.321Z,7.70
2023-05-06T19:50:47.057Z,7.85
2023-05-06T19:53:49.150Z,7.57
2023-05-06T19:56:51.170Z,6.97
2023-05-06T19:59:54.381Z,7.68
2023-05-06T20:03:00.273Z,7.50
2023-05-06T20:06:02.301Z,7.65
2023-05-06T20:09:04.881Z,8.13
2023-05-06T20:12:06.990Z,9.73
2023-05-06T20:15:10.624Z,9.93
2023-05-06T20:18:12.614Z,10.40
2023-05-06T20:21:17.217Z,10.23
2023-05-06T20:24:20.142Z,10.55
2023-05-06T20:27:21.816Z,11.15
2023-05-06T20:30:23.651Z,10.73
2023-05-06T20:33:25.469Z,11.35
2023-05-06T20:36:27.236Z,10.90
2023-05-06T20:39:28.951Z,11.95
2023-05-06T20:42:30.810Z,11.70
2023-05-06T20:45:32.561Z,10.52
2023-05-06T20:48:34.351Z,10.63
2023-05-06T20:51:36.384Z,11.30
2023-05-06T20:54:38.085Z,9.65
2023-05-06T20:57:45.583Z,8.85
2023-05-06T21:00:47.385Z,8.40
2023-05-06T21:03:50.296Z,8.05
2023-05-06T21:06:52.108Z,6.55
2023-05-06T21:09:53.840Z,7.30
2023-05-06T21:12:55.662Z,7.85
2023-05-06T21:15:57.735Z,7.57
2023-05-06T21:19:00.864Z,6.50
2023-05-06T21:22:02.682Z,7.10
2023-05-06T21:25:05.310Z,6.95
2023-05-06T21:28:07.143Z,7.35
2023-05-06T21:31:08.844Z,9.15
2023-05-06T21:34:10.748Z,9.55
2023-05-06T21:37:12.598Z,8.65
2023-05-06T21:40:14.538Z,10.40
2023-05-06T21:43:18.098Z,10.50
2023-05-06T21:46:19.875Z,10.57
2023-05-06T21:49:22.369Z,10.00
2023-05-06T21:52:24.710Z,10.57
2023-05-06T21:55:27.784Z,10.27
2023-05-06T21:58:29.606Z,8.45
2023-05-06T22:01:32.096Z,9.05
2023-05-06T22:04:33.839Z,8.85
2023-05-06T22:07:36.015Z,8.60
2023-05-06T22:10:37.723Z,9.52
2023-05-06T22:13:39.427Z,8.48
2023-05-06T22:16:41.596Z,8.38
2023-05-06T22:19:43.377Z,8.70
2023-05-06T22:22:45.613Z,8.52
2023-05-06T22:25:47.315Z,9.10
2023-05-06T22:28:49.009Z,8.98
2023-05-06T22:31:50.852Z,8.50
2023-05-06T22:34:52.695Z,9.05
2023-05-06T22:37:54.377Z,8.55
2023-05-06T22:40:56.123Z,9.13
2023-05-06T22:44:01.901Z,8.93
2023-05-06T22:47:03.599Z,9.25
2023-05-06T22:50:06.948Z,8.90
2023-05-06T22:53:15.130Z,9.00
2023-05-06T22:56:19.034Z,8.32
2023-05-06T22:59:20.843Z,9.32
2023-05-06T23:02:22.690Z,8.98
2023-05-06T23:05:24.426Z,8.60
2023-05-06T23:08:26.211Z,8.48
2023-05-06T23:11:27.933Z,9.75
2023-05-06T23:14:29.634Z,9.25
2023-05-06T23:17:32.115Z,8.82
2023-05-06T23:20:33.997Z,8.60
2023-05-06T23:23:35.823Z,9.30
2023-05-06T23:26:37.520Z,8.85
2023-05-06T23:29:39.221Z,9.70
2023-05-06T23:32:41.065Z,9.57
2023-05-06T23:35:42.830Z,8.88
2023-05-06T23:38:44.582Z,10.05
2023-05-06T23:41:46.309Z,9.48
2023-05-06T23:44:48.287Z,9.77
2023-05-06T23:47:50.078Z,10.65
2023-05-06T23:50:52.000Z,10.40
2023-05-06T23:53:53.716Z,10.65
2023-05-06T23:56:55.914Z,10.02
2023-05-06T23:59:57.726Z,9.60
